createdAt,value
2023-03-06T00:01:48.951Z,1.57
2023-03-06T00:04:51.575Z,1.48
2023-03-06T00:07:54.128Z,1.40
2023-03-06T00:10:57.580Z,1.36
2023-03-06T00:14:00.281Z,1.30
2023-03-06T00:17:02.980Z,1.27
2023-03-06T00:20:06.707Z,1.20
2023-03-06T00:23:10.058Z,1.12
2023-03-06T00:26:12.910Z,1.09
2023-03-06T00:29:17.763Z,0.76
2023-03-06T00:32:20.847Z,0.82
2023-03-06T00:35:23.604Z,0.95
2023-03-06T00:38:28.635Z,0.77
2023-03-06T00:41:32.167Z,0.65
2023-03-06T00:44:36.111Z,0.98
2023-03-06T00:47:39.155Z,0.89
2023-03-06T00:50:41.908Z,0.87
2023-03-06T00:53:44.531Z,0.78
2023-03-06T00:56:47.139Z,0.74
2023-03-06T00:59:50.352Z,0.70
2023-03-06T01:02:53.776Z,0.76
2023-03-06T01:05:58.105Z,0.44
2023-03-06T01:09:06.478Z,0.52
2023-03-06T01:12:09.419Z,0.63
2023-03-06T01:15:13.260Z,0.45
2023-03-06T01:18:16.008Z,0.46
2023-03-06T01:21:19.105Z,0.94
2023-03-06T01:24:24.028Z,0.69
2023-03-06T01:27:26.679Z,0.51
2023-03-06T01:30:29.317Z,0.36
2023-03-06T01:33:31.941Z,0.03
2023-03-06T01:36:34.537Z,-0.03
2023-03-06T01:39:38.546Z,0.25
2023-03-06T01:42:42.190Z,0.21
2023-03-06T01:45:50.658Z,0.18
2023-03-06T01:48:56.787Z,-0.08
2023-03-06T01:52:21.450Z,0.00
2023-03-06T01:55:31.067Z,-0.08
2023-03-06T01:58:34.401Z,-0.21
2023-03-06T02:01:39.973Z,-0.28
2023-03-06T02:04:44.252Z,-0.30
2023-03-06T02:07:48.077Z,-0.17
2023-03-06T02:11:08.881Z,0.10
2023-03-06T02:14:14.522Z,0.05
2023-03-06T02:17:20.531Z,-0.13
2023-03-06T02:20:31.862Z,0.18
2023-03-06T02:23:49.259Z,0.21
2023-03-06T02:26:53.290Z,0.05
2023-03-06T02:29:56.052Z,0.33
2023-03-06T02:32:58.878Z,0.42
2023-03-06T02:36:06.920Z,0.26
2023-03-06T02:39:10.623Z,0.34
2023-03-06T02:42:19.609Z,0.50
2023-03-06T02:45:45.392Z,0.47
2023-03-06T02:48:48.163Z,0.44
2023-03-06T02:51:50.778Z,0.53
2023-03-06T02:54:53.324Z,0.06
2023-03-06T02:57:56.147Z,0.38
2023-03-06T03:00:59.659Z,0.57
2023-03-06T03:04:02.243Z,0.46
2023-03-06T03:07:05.565Z,0.39
2023-03-06T03:10:08.949Z,0.19
2023-03-06T03:13:11.538Z,0.11
2023-03-06T03:16:15.606Z,0.23
2023-03-06T03:19:18.721Z,0.33
2023-03-06T03:22:22.077Z,0.17
2023-03-06T03:25:26.484Z,0.15
2023-03-06T03:28:31.688Z,0.14
2023-03-06T03:31:34.771Z,0.16
2023-03-06T03:34:38.526Z,0.14
2023-03-06T03:37:41.873Z,-0.09
2023-03-06T03:40:45.095Z,0.17
2023-03-06T03:43:48.639Z,0.35
2023-03-06T03:46:51.783Z,0.46
2023-03-06T03:49:57.777Z,0.42
2023-03-06T03:53:00.930Z,0.32
2023-03-06T03:56:04.458Z,0.35
2023-03-06T03:59:09.719Z,0.38
2023-03-06T04:02:21.904Z,0.30
2023-03-06T04:05:36.189Z,0.15
2023-03-06T04:08:41.791Z,0.09
2023-03-06T04:11:44.362Z,0.24
2023-03-06T04:14:47.563Z,0.20
2023-03-06T04:17:50.266Z,0.26
2023-03-06T04:20:56.447Z,0.26
2023-03-06T04:23:59.111Z,0.28
2023-03-06T04:27:01.741Z,0.06
2023-03-06T04:30:06.326Z,0.02
2023-03-06T04:33:10.842Z,0.09
2023-03-06T04:36:30.322Z,0.18
2023-03-06T04:39:36.904Z,0.09
2023-03-06T04:42:39.463Z,-0.05
2023-03-06T04:45:42.073Z,0.11
2023-03-06T04:48:44.747Z,0.01
2023-03-06T04:51:47.338Z,0.17
2023-03-06T04:54:49.906Z,-0.03
2023-03-06T04:57:52.674Z,-0.03
2023-03-06T05:00:55.354Z,-0.08
2023-03-06T05:03:57.914Z,-0.12
2023-03-06T05:07:00.495Z,-0.01
2023-03-06T05:10:03.413Z,-0.14
2023-03-06T05:13:06.066Z,0.11
2023-03-06T05:16:09.320Z,-0.07
2023-03-06T05:19:12.107Z,-0.03
2023-03-06T05:22:14.966Z,0.10
2023-03-06T05:25:17.599Z,0.41
2023-03-06T05:28:20.375Z,0.28
2023-03-06T05:31:23.145Z,0.12
2023-03-06T05:34:25.770Z,0.36
2023-03-06T05:37:28.446Z,0.30
2023-03-06T05:40:31.361Z,0.24
2023-03-06T05:43:33.945Z,0.35
2023-03-06T05:46:37.831Z,0.48
2023-03-06T05:49:41.139Z,0.39
2023-03-06T05:52:43.868Z,0.56
2023-03-06T05:55:46.503Z,0.33
2023-03-06T05:58:49.229Z,0.55
2023-03-06T06:01:51.835Z,0.31
2023-03-06T06:04:54.475Z,0.39
2023-03-06T06:07:57.081Z,0.66
2023-03-06T06:11:00.100Z,0.80
2023-03-06T06:14:02.735Z,0.86
2023-03-06T06:17:05.508Z,0.89
2023-03-06T06:20:08.993Z,0.94
2023-03-06T06:23:11.808Z,1.15
2023-03-06T06:26:14.438Z,1.31
2023-03-06T06:29:17.256Z,1.23
2023-03-06T06:32:20.112Z,1.31
2023-03-06T06:35:23.066Z,1.31
2023-03-06T06:38:26.247Z,1.21
2023-03-06T06:41:53.457Z,1.38
2023-03-06T06:44:53.023Z,1.35
2023-03-06T06:47:55.696Z,1.46
2023-03-06T06:50:59.208Z,1.60
2023-03-06T06:54:04.299Z,1.72
2023-03-06T06:57:06.888Z,1.94
2023-03-06T07:00:13.457Z,2.12
2023-03-06T07:03:16.275Z,2.16
2023-03-06T07:06:19.038Z,2.31
2023-03-06T07:09:22.446Z,2.49
2023-03-06T07:12:25.043Z,2.50
2023-03-06T07:15:29.942Z,2.48
2023-03-06T07:18:32.812Z,2.58
2023-03-06T07:21:36.242Z,2.54
2023-03-06T07:24:38.822Z,2.74
2023-03-06T07:27:41.494Z,2.99
2023-03-06T07:30:44.588Z,3.27
2023-03-06T07:33:47.149Z,3.05
2023-03-06T07:36:50.972Z,3.42
2023-03-06T07:39:53.507Z,3.55
2023-03-06T07:43:09.106Z,3.76
2023-03-06T07:46:19.525Z,4.15
2023-03-06T07:49:25.097Z,4.31
2023-03-06T07:52:29.893Z,4.76
2023-03-06T07:55:32.500Z,4.90
2023-03-06T07:58:36.598Z,5.10
2023-03-06T08:01:40.377Z,4.97
2023-03-06T08:05:48.430Z,4.87
2023-03-06T08:08:54.103Z,4.88
2023-03-06T08:11:57.317Z,4.85
2023-03-06T08:15:03.555Z,5.12
2023-03-06T08:18:06.264Z,4.93
2023-03-06T08:21:11.839Z,5.22
2023-03-06T08:24:16.717Z,5.21
2023-03-06T08:27:19.362Z,5.61
2023-03-06T08:30:22.032Z,5.61
2023-03-06T08:33:25.111Z,5.60
2023-03-06T08:36:28.120Z,5.55
2023-03-06T08:39:32.872Z,5.58
2023-03-06T08:42:44.941Z,5.37
2023-03-06T08:45:55.642Z,5.27
2023-03-06T08:48:58.974Z,5.53
2023-03-06T08:52:01.578Z,5.51
2023-03-06T08:55:05.314Z,5.50
2023-03-06T08:58:08.686Z,5.43
2023-03-06T09:01:16.672Z,5.72
2023-03-06T09:04:19.319Z,5.99
2023-03-06T09:07:21.983Z,5.93
2023-03-06T09:10:26.322Z,6.10
2023-03-06T09:13:29.055Z,6.20
2023-03-06T09:16:32.478Z,6.20
2023-03-06T09:19:35.183Z,6.36
2023-03-06T09:22:38.099Z,6.38
2023-03-06T09:25:40.682Z,6.39
2023-03-06T09:28:43.332Z,6.39
2023-03-06T09:31:46.086Z,6.10
2023-03-06T09:34:50.322Z,5.96
2023-03-06T09:37:52.853Z,5.83
2023-03-06T09:40:58.353Z,6.05
2023-03-06T09:44:14.699Z,5.92
2023-03-06T09:47:52.665Z,5.98
2023-03-06T09:51:08.463Z,5.91
2023-03-06T09:54:16.040Z,5.77
2023-03-06T09:57:28.359Z,5.76
2023-03-06T10:00:51.413Z,5.78
2023-03-06T10:04:12.026Z,5.59
2023-03-06T10:07:51.964Z,5.65
2023-03-06T10:11:01.970Z,5.52
2023-03-06T10:14:16.440Z,5.57
2023-03-06T10:17:24.067Z,5.51
2023-03-06T10:20:33.858Z,5.34
2023-03-06T10:23:51.854Z,5.26
2023-03-06T10:27:21.628Z,5.44
2023-03-06T10:30:59.645Z,5.20
2023-03-06T10:34:22.896Z,5.04
2023-03-06T10:37:26.279Z,5.07
2023-03-06T10:40:40.500Z,4.94
2023-03-06T10:43:44.602Z,4.91
2023-03-06T10:46:50.037Z,4.82
2023-03-06T10:50:01.725Z,4.86
2023-03-06T10:53:19.244Z,4.83
2023-03-06T10:56:29.373Z,4.65
2023-03-06T10:59:32.213Z,4.46
2023-03-06T11:02:38.696Z,4.55
2023-03-06T11:05:58.253Z,4.53
2023-03-06T11:09:18.822Z,4.57
2023-03-06T11:12:33.342Z,4.43
2023-03-06T11:15:36.237Z,4.44
2023-03-06T11:18:41.152Z,4.44
2023-03-06T11:21:58.515Z,4.52
2023-03-06T11:25:01.629Z,4.57
2023-03-06T11:28:34.864Z,4.38
2023-03-06T11:32:07.556Z,4.52
2023-03-06T11:35:14.135Z,4.29
2023-03-06T11:38:30.942Z,4.39
2023-03-06T11:41:48.055Z,4.58
2023-03-06T11:44:55.496Z,4.81
2023-03-06T11:48:11.873Z,4.62
2023-03-06T11:51:19.908Z,4.55
2023-03-06T11:54:23.282Z,4.71
2023-03-06T11:57:35.288Z,4.27
2023-03-06T12:01:15.967Z,4.55
2023-03-06T12:04:24.189Z,4.46
2023-03-06T12:07:35.873Z,4.44
2023-03-06T12:10:51.869Z,4.32
2023-03-06T12:14:12.444Z,4.09
2023-03-06T12:17:26.885Z,4.16
2023-03-06T12:20:33.077Z,4.17
2023-03-06T12:24:00.663Z,4.02
2023-03-06T12:27:19.993Z,3.89
2023-03-06T12:30:31.371Z,4.06
2023-03-06T12:33:58.660Z,4.05
2023-03-06T12:37:04.086Z,4.12
2023-03-06T12:40:30.758Z,4.20
2023-03-06T12:43:45.344Z,4.29
2023-03-06T12:46:54.916Z,4.20
2023-03-06T12:50:05.320Z,4.16
2023-03-06T12:53:14.530Z,4.30
2023-03-06T12:56:19.032Z,4.32
2023-03-06T12:59:42.825Z,4.32
2023-03-06T13:03:12.432Z,4.62
2023-03-06T13:06:32.462Z,4.75
2023-03-06T13:09:58.058Z,4.53
2023-03-06T13:13:05.133Z,4.51
2023-03-06T13:16:12.524Z,4.51
2023-03-06T13:19:25.298Z,4.48
2023-03-06T13:22:30.124Z,4.50
2023-03-06T13:25:45.791Z,4.28
2023-03-06T13:28:51.071Z,4.29
2023-03-06T13:31:53.734Z,4.52
2023-03-06T13:34:56.447Z,4.44
2023-03-06T13:38:00.287Z,4.32
2023-03-06T13:41:21.131Z,4.36
2023-03-06T13:44:23.682Z,4.40
2023-03-06T13:48:02.789Z,4.35
2023-03-06T13:51:24.729Z,4.31
2023-03-06T13:54:27.285Z,4.43
2023-03-06T13:57:38.678Z,4.59
2023-03-06T14:00:56.071Z,4.43
2023-03-06T14:04:15.395Z,4.31
2023-03-06T14:07:20.690Z,4.23
2023-03-06T14:10:25.426Z,4.11
2023-03-06T14:13:46.703Z,4.06
2023-03-06T14:16:51.090Z,4.03
2023-03-06T14:19:54.917Z,4.51
2023-03-06T14:23:26.894Z,4.72
2023-03-06T14:26:44.165Z,4.71
2023-03-06T14:29:48.808Z,4.76
2023-03-06T14:32:53.998Z,4.67
2023-03-06T14:36:01.184Z,4.68
2023-03-06T14:39:22.883Z,4.53
2023-03-06T14:42:29.687Z,4.46
2023-03-06T14:45:32.358Z,4.31
2023-03-06T14:48:41.373Z,4.27
2023-03-06T14:51:46.834Z,4.41
2023-03-06T14:54:49.977Z,4.42
2023-03-06T14:58:04.619Z,4.53
2023-03-06T15:01:09.893Z,4.51
2023-03-06T15:04:26.432Z,4.51
2023-03-06T15:07:32.611Z,4.50
2023-03-06T15:10:36.798Z,4.34
2023-03-06T15:13:39.704Z,4.53
2023-03-06T15:16:42.425Z,4.29
2023-03-06T15:19:47.410Z,4.49
2023-03-06T15:22:50.984Z,4.83
2023-03-06T15:26:03.618Z,4.78
2023-03-06T15:29:10.062Z,4.75
2023-03-06T15:32:34.737Z,4.69
2023-03-06T15:35:38.406Z,4.61
2023-03-06T15:38:44.203Z,4.70
2023-03-06T15:41:46.872Z,4.55
2023-03-06T15:45:03.372Z,4.38
2023-03-06T15:48:16.936Z,4.42
2023-03-06T15:51:19.818Z,4.45
2023-03-06T15:54:22.447Z,4.59
2023-03-06T15:57:29.158Z,4.35
2023-03-06T16:00:38.517Z,4.27
2023-03-06T16:03:41.155Z,4.45
2023-03-06T16:06:47.257Z,4.30
2023-03-06T16:09:49.871Z,4.40
2023-03-06T16:12:59.820Z,4.32
2023-03-06T16:16:02.492Z,4.32
2023-03-06T16:19:23.859Z,4.16
2023-03-06T16:22:28.410Z,4.21
2023-03-06T16:25:31.191Z,3.99
2023-03-06T16:28:33.789Z,3.89
2023-03-06T16:31:37.043Z,4.01
2023-03-06T16:34:39.622Z,3.76
2023-03-06T16:37:42.540Z,3.72
2023-03-06T16:40:45.383Z,3.83
2023-03-06T16:43:48.496Z,3.47
2023-03-06T16:46:51.336Z,3.55
2023-03-06T16:49:58.097Z,3.68
2023-03-06T16:53:00.913Z,3.53
2023-03-06T16:56:03.603Z,3.46
2023-03-06T16:59:06.163Z,3.18
2023-03-06T17:02:10.967Z,3.08
2023-03-06T17:05:13.879Z,3.19
2023-03-06T17:08:16.537Z,3.44
2023-03-06T17:11:20.506Z,3.53
2023-03-06T17:14:23.172Z,3.24
2023-03-06T17:17:25.947Z,3.29
2023-03-06T17:20:28.532Z,3.51
2023-03-06T17:23:31.075Z,3.58
2023-03-06T17:26:34.027Z,3.71
2023-03-06T17:29:37.143Z,3.74
2023-03-06T17:32:42.889Z,3.64
2023-03-06T17:35:45.618Z,3.44
2023-03-06T17:38:48.629Z,3.61
2023-03-06T17:41:51.450Z,3.54
2023-03-06T17:44:54.322Z,3.81
2023-03-06T17:47:57.224Z,3.79
2023-03-06T17:51:00.650Z,3.88
2023-03-06T17:54:03.561Z,3.88
2023-03-06T17:57:06.353Z,3.81
2023-03-06T18:00:10.865Z,3.66
2023-03-06T18:03:19.010Z,3.70
2023-03-06T18:06:22.553Z,3.96
2023-03-06T18:09:25.537Z,3.79
2023-03-06T18:12:29.485Z,3.87
2023-03-06T18:15:32.173Z,3.62
2023-03-06T18:18:35.269Z,3.64
2023-03-06T18:21:39.981Z,3.49
2023-03-06T18:24:43.903Z,3.30
2023-03-06T18:27:46.849Z,3.10
2023-03-06T18:30:50.010Z,3.21
2023-03-06T18:33:55.188Z,3.22
2023-03-06T18:36:58.118Z,3.31
2023-03-06T18:40:01.028Z,3.44
2023-03-06T18:43:03.746Z,3.45
2023-03-06T18:46:06.997Z,3.33
2023-03-06T18:49:11.850Z,3.62
2023-03-06T18:52:15.017Z,3.54
2023-03-06T18:55:17.891Z,3.25
2023-03-06T18:58:21.855Z,3.33
2023-03-06T19:01:25.521Z,3.24
2023-03-06T19:04:28.597Z,3.11
2023-03-06T19:07:31.491Z,3.19
2023-03-06T19:10:36.374Z,3.30
2023-03-06T19:13:39.341Z,3.19
2023-03-06T19:16:42.692Z,3.08
2023-03-06T19:19:45.510Z,2.94
2023-03-06T19:22:48.225Z,2.90
2023-03-06T19:25:59.130Z,2.91
2023-03-06T19:29:02.160Z,2.72
2023-03-06T19:32:05.317Z,2.96
2023-03-06T19:35:12.650Z,2.82
2023-03-06T19:38:15.672Z,2.94
2023-03-06T19:41:18.403Z,2.86
2023-03-06T19:44:21.348Z,2.94
2023-03-06T19:47:24.264Z,3.06
2023-03-06T19:50:30.702Z,3.05
2023-03-06T19:53:35.315Z,2.73
2023-03-06T19:56:38.170Z,2.78
2023-03-06T19:59:41.930Z,3.08
2023-03-06T20:02:44.824Z,2.65
2023-03-06T20:05:47.980Z,2.80
2023-03-06T20:08:51.377Z,2.54
2023-03-06T20:11:54.774Z,2.82
2023-03-06T20:14:57.392Z,2.79
2023-03-06T20:18:00.243Z,2.61
2023-03-06T20:21:04.541Z,2.80
2023-03-06T20:24:09.997Z,2.70
2023-03-06T20:27:13.289Z,2.97
2023-03-06T20:30:17.200Z,2.95
2023-03-06T20:33:22.288Z,2.92
2023-03-06T20:36:28.963Z,2.76
2023-03-06T20:39:32.270Z,2.96
2023-03-06T20:42:35.251Z,2.62
2023-03-06T20:45:38.154Z,2.73
2023-03-06T20:48:42.076Z,2.61
2023-03-06T20:51:45.856Z,2.44
2023-03-06T20:54:48.983Z,2.56
2023-03-06T20:57:52.606Z,2.40
2023-03-06T21:00:55.545Z,2.17
2023-03-06T21:03:58.766Z,2.24
2023-03-06T21:07:01.366Z,2.13
2023-03-06T21:10:04.647Z,2.10
2023-03-06T21:13:07.537Z,2.08
2023-03-06T21:16:13.716Z,1.95
2023-03-06T21:19:17.178Z,1.88
2023-03-06T21:22:20.379Z,2.03
2023-03-06T21:25:23.266Z,2.15
2023-03-06T21:28:25.872Z,2.16
2023-03-06T21:31:29.638Z,2.20
2023-03-06T21:34:32.314Z,2.20
2023-03-06T21:37:34.948Z,2.27
2023-03-06T21:40:38.085Z,2.10
2023-03-06T21:43:41.244Z,1.86
2023-03-06T21:46:43.874Z,1.83
2023-03-06T21:49:49.001Z,1.71
2023-03-06T21:52:52.294Z,1.80
2023-03-06T21:55:54.909Z,1.69
2023-03-06T21:58:58.359Z,1.82
2023-03-06T22:02:01.024Z,1.82
2023-03-06T22:05:04.656Z,1.94
2023-03-06T22:08:07.379Z,2.06
2023-03-06T22:11:13.334Z,2.24
2023-03-06T22:14:15.964Z,2.12
2023-03-06T22:17:18.480Z,1.89
2023-03-06T22:20:21.103Z,1.89
2023-03-06T22:23:23.812Z,1.90
2023-03-06T22:26:28.183Z,1.78
2023-03-06T22:29:30.962Z,1.22
2023-03-06T22:32:33.711Z,1.05
2023-03-06T22:35:36.367Z,1.09
2023-03-06T22:38:41.205Z,1.01
2023-03-06T22:41:43.772Z,0.98
2023-03-06T22:44:46.491Z,0.90
2023-03-06T22:47:49.019Z,0.81
2023-03-06T22:50:51.574Z,0.79
2023-03-06T22:53:54.295Z,0.67
2023-03-06T22:56:56.900Z,0.60
2023-03-06T22:59:59.469Z,0.54
2023-03-06T23:03:02.302Z,0.52
2023-03-06T23:06:09.859Z,0.65
2023-03-06T23:09:21.555Z,0.45
2023-03-06T23:12:44.156Z,0.30
2023-03-06T23:16:07.234Z,0.14
2023-03-06T23:19:28.982Z,0.17
2023-03-06T23:22:50.294Z,0.25
2023-03-06T23:26:13.979Z,0.38
2023-03-06T23:29:16.624Z,0.14
2023-03-06T23:32:19.341Z,0.28
2023-03-06T23:35:22.159Z,0.14
2023-03-06T23:38:24.747Z,0.44
2023-03-06T23:41:27.330Z,0.34
2023-03-06T23:44:29.994Z,0.38
2023-03-06T23:47:34.152Z,0.44
2023-03-06T23:50:39.749Z,0.37
2023-03-06T23:53:43.989Z,0.47
2023-03-06T23:56:46.575Z,0.47
2023-03-06T23:59:49.190Z,0.20
